createdAt,value
2023-02-01T00:00:34.159Z,-2.35
2023-02-01T00:01:30.970Z,-2.30
2023-02-01T00:02:27.673Z,-2.22
2023-02-01T00:03:24.367Z,-2.04
2023-02-01T00:04:21.344Z,-2.34
2023-02-01T00:05:17.945Z,-2.31
2023-02-01T00:06:14.606Z,-2.15
2023-02-01T00:07:14.037Z,-2.19
2023-02-01T00:08:10.977Z,-2.14
2023-02-01T00:09:07.641Z,-2.24
2023-02-01T00:10:06.665Z,-2.54
2023-02-01T00:11:09.206Z,-2.17
2023-02-01T00:12:06.056Z,-2.05
2023-02-01T00:13:02.724Z,-2.09
2023-02-01T00:13:59.297Z,-1.96
2023-02-01T00:14:55.821Z,-2.01
2023-02-01T00:15:52.395Z,-1.99
2023-02-01T00:16:49.112Z,-2.63
2023-02-01T00:17:45.710Z,-1.96
2023-02-01T00:18:43.411Z,-1.90
2023-02-01T00:19:39.993Z,-1.96
2023-02-01T00:20:36.557Z,-1.92
2023-02-01T00:21:33.741Z,-2.14
2023-02-01T00:22:30.311Z,-1.95
2023-02-01T00:23:27.089Z,-1.93
2023-02-01T00:24:23.687Z,-1.90
2023-02-01T00:25:20.275Z,-1.94
2023-02-01T00:26:27.938Z,-1.91
2023-02-01T00:27:24.543Z,-1.95
2023-02-01T00:28:21.098Z,-1.89
2023-02-01T00:29:21.003Z,-1.80
2023-02-01T00:30:18.758Z,-1.66
2023-02-01T00:31:16.067Z,-1.68
2023-02-01T00:32:13.366Z,-1.86
2023-02-01T00:33:09.949Z,-1.59
2023-02-01T00:34:06.746Z,-2.31
2023-02-01T00:35:03.411Z,-1.71
2023-02-01T00:36:05.118Z,-1.97
2023-02-01T00:37:01.768Z,-1.71
2023-02-01T00:38:00.545Z,-1.99
2023-02-01T00:38:57.399Z,-1.86
2023-02-01T00:39:55.902Z,-1.78
2023-02-01T00:40:52.679Z,-2.10
2023-02-01T00:41:49.312Z,-2.16
2023-02-01T00:42:45.999Z,-1.83
2023-02-01T00:43:43.686Z,-1.91
2023-02-01T00:44:40.249Z,-1.72
2023-02-01T00:45:36.826Z,-1.77
2023-02-01T00:46:33.447Z,-1.78
2023-02-01T00:47:31.545Z,-1.98
2023-02-01T00:48:29.144Z,-2.04
2023-02-01T00:49:25.771Z,-1.82
2023-02-01T00:50:22.625Z,-2.02
2023-02-01T00:51:22.825Z,-1.57
2023-02-01T00:52:19.460Z,-1.56
2023-02-01T00:53:16.227Z,-1.67
2023-02-01T00:54:12.774Z,-1.62
2023-02-01T00:55:09.615Z,-1.73
2023-02-01T00:56:06.932Z,-1.90
2023-02-01T00:57:03.609Z,-1.77
2023-02-01T00:58:00.880Z,-1.79
2023-02-01T00:58:57.565Z,-1.56
2023-02-01T00:59:54.177Z,-1.77
2023-02-01T01:00:51.117Z,-1.17
2023-02-01T01:01:47.833Z,-1.15
2023-02-01T01:02:44.462Z,-1.33
2023-02-01T01:03:47.283Z,-1.43
2023-02-01T01:04:43.943Z,-1.44
2023-02-01T01:05:40.536Z,-1.13
2023-02-01T01:06:37.589Z,-1.28
2023-02-01T01:07:34.271Z,-1.36
2023-02-01T01:08:31.396Z,-1.31
2023-02-01T01:09:27.965Z,-1.53
2023-02-01T01:10:24.562Z,-1.49
2023-02-01T01:11:24.665Z,-1.39
2023-02-01T01:12:21.289Z,-1.34
2023-02-01T01:13:17.941Z,-1.20
2023-02-01T01:14:14.539Z,-1.16
2023-02-01T01:15:11.725Z,-1.37
2023-02-01T01:16:09.928Z,-1.11
2023-02-01T01:17:06.497Z,-1.17
2023-02-01T01:18:03.217Z,-1.35
2023-02-01T01:19:00.784Z,-1.47
2023-02-01T01:19:59.856Z,-1.26
2023-02-01T01:20:56.969Z,-1.21
2023-02-01T01:21:53.596Z,-1.05
2023-02-01T01:22:50.192Z,-1.07
2023-02-01T01:23:47.785Z,-1.08
2023-02-01T01:24:44.644Z,-1.37
2023-02-01T01:25:41.458Z,-1.33
2023-02-01T01:26:38.037Z,-1.69
2023-02-01T01:27:34.683Z,-1.57
2023-02-01T01:28:31.270Z,-1.36
2023-02-01T01:29:27.925Z,-1.44
2023-02-01T01:30:24.794Z,-1.45
2023-02-01T01:31:22.101Z,-1.30
2023-02-01T01:32:18.737Z,-1.33
2023-02-01T01:33:15.441Z,-1.29
2023-02-01T01:34:12.001Z,-1.52
2023-02-01T01:35:09.027Z,-1.36
2023-02-01T01:36:07.604Z,-1.82
2023-02-01T01:37:04.222Z,-1.56
2023-02-01T01:38:01.853Z,-2.04
2023-02-01T01:38:58.460Z,-1.81
2023-02-01T01:39:56.842Z,-1.88
2023-02-01T01:40:53.573Z,-1.95
2023-02-01T01:41:50.260Z,-2.16
2023-02-01T01:42:46.902Z,-2.29
2023-02-01T01:43:58.259Z,-2.10
2023-02-01T01:45:02.235Z,-2.27
2023-02-01T01:45:58.990Z,-2.14
2023-02-01T01:46:55.617Z,-2.04
2023-02-01T01:47:55.967Z,-2.32
2023-02-01T01:49:15.902Z,-2.14
2023-02-01T01:50:18.027Z,-2.15
2023-02-01T01:51:18.164Z,-2.36
2023-02-01T01:52:15.542Z,-2.32
2023-02-01T01:53:15.511Z,-2.30
2023-02-01T01:54:18.295Z,-2.34
2023-02-01T01:55:17.748Z,-2.81
2023-02-01T01:56:15.337Z,-2.74
2023-02-01T01:57:33.315Z,-2.49
2023-02-01T01:58:34.504Z,-2.36
2023-02-01T01:59:33.476Z,-2.19
2023-02-01T02:00:30.143Z,-2.14
2023-02-01T02:01:27.343Z,-2.27
2023-02-01T02:02:24.013Z,-2.39
2023-02-01T02:03:24.591Z,-2.44
2023-02-01T02:04:21.497Z,-2.80
2023-02-01T02:05:18.974Z,-2.46
2023-02-01T02:06:38.765Z,-2.79
2023-02-01T02:07:40.370Z,-2.80
2023-02-01T02:08:37.007Z,-2.63
2023-02-01T02:09:33.747Z,-2.23
2023-02-01T02:10:50.277Z,-2.17
2023-02-01T02:11:46.932Z,-2.65
2023-02-01T02:12:47.964Z,-2.68
2023-02-01T02:13:49.235Z,-2.74
2023-02-01T02:14:46.129Z,-2.32
2023-02-01T02:16:13.868Z,-2.36
2023-02-01T02:17:19.517Z,-2.59
2023-02-01T02:18:39.093Z,-2.10
2023-02-01T02:19:44.445Z,-2.01
2023-02-01T02:20:50.634Z,-2.35
2023-02-01T02:22:26.194Z,-2.34
2023-02-01T02:24:00.712Z,-1.47
2023-02-01T02:25:28.447Z,-1.89
2023-02-01T02:26:53.241Z,-1.97
2023-02-01T02:28:20.946Z,-2.04
2023-02-01T02:29:36.112Z,-1.95
2023-02-01T02:30:57.196Z,-1.97
2023-02-01T02:32:08.587Z,-2.07
2023-02-01T02:33:29.313Z,-2.09
2023-02-01T02:34:33.609Z,-2.30
2023-02-01T02:35:57.774Z,-2.22
2023-02-01T02:37:02.896Z,-2.31
2023-02-01T02:38:13.218Z,-2.37
2023-02-01T02:39:20.484Z,-2.18
2023-02-01T02:40:30.411Z,-2.13
2023-02-01T02:41:59.029Z,-2.24
2023-02-01T02:43:32.793Z,-2.10
2023-02-01T02:45:19.325Z,-2.18
2023-02-01T02:46:58.307Z,-2.35
2023-02-01T02:48:00.820Z,-2.27
2023-02-01T02:49:00.136Z,-2.63
2023-02-01T02:50:24.125Z,-1.99
2023-02-01T02:51:55.111Z,-2.09
2023-02-01T02:53:36.209Z,-2.30
2023-02-01T02:54:47.383Z,-2.37
2023-02-01T02:55:44.697Z,-2.38
2023-02-01T02:57:00.608Z,-2.29
2023-02-01T02:58:18.110Z,-2.36
2023-02-01T02:59:39.314Z,-2.32
2023-02-01T03:00:56.811Z,-2.32
2023-02-01T03:02:13.526Z,-2.31
2023-02-01T03:03:28.779Z,-2.42
2023-02-01T03:04:26.627Z,-2.69
2023-02-01T03:05:23.644Z,-2.14
2023-02-01T03:06:20.268Z,-1.65
2023-02-01T03:07:45.816Z,-1.83
2023-02-01T03:08:46.287Z,-2.21
2023-02-01T03:09:47.070Z,-1.96
2023-02-01T03:11:06.983Z,-1.99
2023-02-01T03:12:31.772Z,-2.03
2023-02-01T03:13:42.946Z,-1.93
2023-02-01T03:14:45.639Z,-1.78
2023-02-01T03:16:05.627Z,-1.75
2023-02-01T03:17:09.805Z,-2.00
2023-02-01T03:18:17.442Z,-2.43
2023-02-01T03:19:23.091Z,-2.21
2023-02-01T03:20:23.317Z,-1.98
2023-02-01T03:21:25.366Z,-1.95
2023-02-01T03:22:25.432Z,-1.70
2023-02-01T03:23:27.098Z,-1.82
2023-02-01T03:24:36.433Z,-1.81
2023-02-01T03:25:34.000Z,-2.02
2023-02-01T03:26:35.981Z,-1.94
2023-02-01T03:27:42.947Z,-1.92
2023-02-01T03:28:50.680Z,-1.73
2023-02-01T03:29:53.568Z,-1.60
2023-02-01T03:30:50.798Z,-1.47
2023-02-01T03:31:47.628Z,-1.91
2023-02-01T03:33:02.284Z,-2.22
2023-02-01T03:33:59.698Z,-1.93
2023-02-01T03:34:56.744Z,-1.78
2023-02-01T03:36:07.733Z,-1.91
2023-02-01T03:37:11.036Z,-1.87
2023-02-01T03:38:13.766Z,-1.63
2023-02-01T03:39:17.859Z,-1.44
2023-02-01T03:40:17.910Z,-1.61
2023-02-01T03:41:26.795Z,-1.46
2023-02-01T03:42:38.122Z,-1.82
2023-02-01T03:43:43.981Z,-1.50
2023-02-01T03:44:50.690Z,-1.74
2023-02-01T03:45:53.590Z,-1.72
2023-02-01T03:47:10.696Z,-1.55
2023-02-01T03:48:08.648Z,-1.63
2023-02-01T03:49:10.292Z,-1.77
2023-02-01T03:50:10.697Z,-1.74
2023-02-01T03:51:08.199Z,-1.59
2023-02-01T03:52:08.147Z,-1.59
2023-02-01T03:53:09.314Z,-1.28
2023-02-01T03:54:10.340Z,-1.59
2023-02-01T03:55:08.532Z,-1.82
2023-02-01T03:56:06.435Z,-1.83
2023-02-01T03:57:10.978Z,-1.72
2023-02-01T03:58:12.729Z,-1.89
2023-02-01T03:59:09.593Z,-1.72
2023-02-01T04:00:18.102Z,-1.58
2023-02-01T04:01:14.741Z,-1.73
2023-02-01T04:02:11.940Z,-1.61
2023-02-01T04:03:08.896Z,-1.78
2023-02-01T04:04:05.526Z,-1.47
2023-02-01T04:05:02.102Z,-1.48
2023-02-01T04:05:58.777Z,-1.49
2023-02-01T04:06:55.359Z,-1.66
2023-02-01T04:07:53.102Z,-1.56
2023-02-01T04:08:49.751Z,-1.48
2023-02-01T04:09:46.412Z,-1.70
2023-02-01T04:10:43.157Z,-1.77
2023-02-01T04:11:39.878Z,-2.16
2023-02-01T04:12:36.651Z,-1.93
2023-02-01T04:13:33.303Z,-1.86
2023-02-01T04:14:29.882Z,-1.65
2023-02-01T04:15:26.687Z,-1.78
2023-02-01T04:16:23.352Z,-1.85
2023-02-01T04:17:19.925Z,-1.96
2023-02-01T04:18:16.581Z,-1.86
2023-02-01T04:19:13.128Z,-1.84
2023-02-01T04:20:10.609Z,-2.05
2023-02-01T04:21:07.524Z,-2.31
2023-02-01T04:22:04.102Z,-1.87
2023-02-01T04:23:03.514Z,-1.84
2023-02-01T04:24:00.114Z,-1.97
2023-02-01T04:24:56.723Z,-2.29
2023-02-01T04:25:53.292Z,-2.56
2023-02-01T04:26:49.930Z,-1.95
2023-02-01T04:27:46.610Z,-1.93
2023-02-01T04:28:43.676Z,-1.96
2023-02-01T04:29:40.363Z,-2.07
2023-02-01T04:30:37.009Z,-2.38
2023-02-01T04:31:33.752Z,-2.45
2023-02-01T04:32:30.482Z,-2.21
2023-02-01T04:33:27.107Z,-2.16
2023-02-01T04:34:25.753Z,-2.27
2023-02-01T04:35:22.984Z,-2.44
2023-02-01T04:36:23.419Z,-2.44
2023-02-01T04:37:20.063Z,-2.24
2023-02-01T04:38:16.659Z,-1.86
2023-02-01T04:39:13.383Z,-2.15
2023-02-01T04:40:10.698Z,-2.35
2023-02-01T04:41:07.306Z,-1.90
2023-02-01T04:42:04.134Z,-1.78
2023-02-01T04:43:01.840Z,-2.08
2023-02-01T04:43:58.438Z,-2.01
2023-02-01T04:44:55.136Z,-1.68
2023-02-01T04:45:52.061Z,-1.52
2023-02-01T04:46:48.698Z,-1.99
2023-02-01T04:47:45.354Z,-1.94
2023-02-01T04:48:43.093Z,-2.27
2023-02-01T04:49:39.663Z,-1.93
2023-02-01T04:50:36.391Z,-1.80
2023-02-01T04:51:33.542Z,-1.69
2023-02-01T04:52:30.109Z,-1.81
2023-02-01T04:53:27.630Z,-1.95
2023-02-01T04:54:24.237Z,-1.77
2023-02-01T04:55:20.840Z,-1.84
2023-02-01T04:56:17.439Z,-2.17
2023-02-01T04:57:14.872Z,-2.13
2023-02-01T04:58:12.018Z,-1.88
2023-02-01T04:59:08.614Z,-2.02
2023-02-01T05:00:06.634Z,-1.62
2023-02-01T05:01:05.629Z,-1.54
2023-02-01T05:02:02.378Z,-1.57
2023-02-01T05:02:58.989Z,-1.89
2023-02-01T05:03:56.019Z,-1.92
2023-02-01T05:04:52.790Z,-1.99
2023-02-01T05:05:50.046Z,-1.58
2023-02-01T05:06:46.751Z,-1.80
2023-02-01T05:07:43.424Z,-1.80
2023-02-01T05:08:40.048Z,-2.10
2023-02-01T05:09:36.672Z,-1.98
2023-02-01T05:10:33.247Z,-1.81
2023-02-01T05:11:48.177Z,-2.07
2023-02-01T05:13:04.381Z,-2.09
2023-02-01T05:14:02.545Z,-2.13
2023-02-01T05:14:59.351Z,-1.98
2023-02-01T05:15:55.984Z,-2.04
2023-02-01T05:16:52.649Z,-1.88
2023-02-01T05:17:49.269Z,-1.45
2023-02-01T05:18:46.206Z,-1.64
2023-02-01T05:19:42.969Z,-1.17
2023-02-01T05:20:39.772Z,-1.28
2023-02-01T05:21:36.426Z,-1.20
2023-02-01T05:22:33.087Z,-1.39
2023-02-01T05:23:29.737Z,-1.44
2023-02-01T05:24:28.009Z,-1.44
2023-02-01T05:25:24.638Z,-1.67
2023-02-01T05:26:21.228Z,-1.52
2023-02-01T05:27:17.805Z,-1.47
2023-02-01T05:28:14.472Z,-1.54
2023-02-01T05:29:11.724Z,-1.61
2023-02-01T05:30:09.821Z,-1.42
2023-02-01T05:31:11.372Z,-1.50
2023-02-01T05:32:21.733Z,-1.42
2023-02-01T05:33:19.334Z,-1.74
2023-02-01T05:34:16.636Z,-1.51
2023-02-01T05:35:13.220Z,-1.53
2023-02-01T05:36:09.944Z,-1.34
2023-02-01T05:37:06.628Z,-2.07
2023-02-01T05:38:03.241Z,-2.06
2023-02-01T05:38:59.946Z,-1.74
2023-02-01T05:39:56.579Z,-1.40
2023-02-01T05:40:53.168Z,-1.55
2023-02-01T05:41:49.731Z,-1.47
2023-02-01T05:42:46.456Z,-1.84
2023-02-01T05:43:43.141Z,-1.84
2023-02-01T05:44:39.727Z,-1.77
2023-02-01T05:45:36.465Z,-1.93
2023-02-01T05:46:33.605Z,-1.79
2023-02-01T05:47:30.268Z,-1.88
2023-02-01T05:48:26.898Z,-1.49
2023-02-01T05:49:23.690Z,-1.57
2023-02-01T05:50:20.513Z,-1.53
2023-02-01T05:51:17.417Z,-1.70
2023-02-01T05:52:14.113Z,-1.39
2023-02-01T05:53:10.709Z,-1.38
2023-02-01T05:54:07.361Z,-1.45
2023-02-01T05:55:04.334Z,-1.22
2023-02-01T05:56:01.126Z,-0.97
2023-02-01T05:56:57.692Z,-1.10
2023-02-01T05:57:54.278Z,-1.10
2023-02-01T05:58:51.057Z,-1.47
2023-02-01T05:59:48.521Z,-1.61
2023-02-01T06:00:45.198Z,-1.47
2023-02-01T06:01:41.835Z,-1.64
2023-02-01T06:02:38.487Z,-1.69
2023-02-01T06:03:35.109Z,-1.63
2023-02-01T06:04:31.760Z,-1.78
2023-02-01T06:05:28.393Z,-2.08
2023-02-01T06:06:25.016Z,-1.62
2023-02-01T06:07:21.654Z,-1.86
2023-02-01T06:08:18.330Z,-1.73
2023-02-01T06:09:14.889Z,-1.68
2023-02-01T06:10:11.768Z,-1.49
2023-02-01T06:11:08.791Z,-1.61
2023-02-01T06:12:05.936Z,-1.48
2023-02-01T06:13:03.999Z,-1.39
2023-02-01T06:14:01.185Z,-1.26
2023-02-01T06:15:00.240Z,-1.53
2023-02-01T06:15:58.255Z,-1.42
2023-02-01T06:16:56.308Z,-1.38
2023-02-01T06:17:52.943Z,-1.24
2023-02-01T06:18:50.089Z,-0.93
2023-02-01T06:19:47.330Z,-0.70
2023-02-01T06:20:43.953Z,-0.86
2023-02-01T06:21:40.532Z,-1.12
2023-02-01T06:22:37.066Z,-1.30
2023-02-01T06:23:33.688Z,-1.31
2023-02-01T06:24:30.287Z,-1.22
2023-02-01T06:25:26.955Z,-0.96
2023-02-01T06:26:23.715Z,-1.19
2023-02-01T06:27:20.450Z,-1.25
2023-02-01T06:28:17.250Z,-1.08
2023-02-01T06:29:14.191Z,-1.21
2023-02-01T06:30:11.340Z,-1.23
2023-02-01T06:31:08.565Z,-1.11
2023-02-01T06:32:05.380Z,-1.22
2023-02-01T06:33:01.973Z,-1.07
2023-02-01T06:33:58.757Z,-1.13
2023-02-01T06:34:56.909Z,-1.22
2023-02-01T06:36:00.833Z,-1.14
2023-02-01T06:36:57.444Z,-1.01
2023-02-01T06:37:54.032Z,-1.04
2023-02-01T06:38:50.671Z,-1.28
2023-02-01T06:39:47.914Z,-1.02
2023-02-01T06:40:44.705Z,-1.04
2023-02-01T06:41:41.525Z,-1.27
2023-02-01T06:42:38.239Z,-0.94
2023-02-01T06:43:34.973Z,-1.04
2023-02-01T06:44:31.528Z,-1.31
2023-02-01T06:45:28.147Z,-1.19
2023-02-01T06:46:24.753Z,-1.32
2023-02-01T06:47:21.457Z,-1.49
2023-02-01T06:48:18.264Z,-1.43
2023-02-01T06:49:14.841Z,-1.29
2023-02-01T06:50:11.587Z,-1.58
2023-02-01T06:51:19.987Z,-1.36
2023-02-01T06:52:16.517Z,-1.28
2023-02-01T06:53:13.092Z,-1.36
2023-02-01T06:54:09.628Z,-1.22
2023-02-01T06:55:06.848Z,-1.21
2023-02-01T06:56:04.085Z,-1.21
2023-02-01T06:57:01.268Z,-1.03
2023-02-01T06:57:57.896Z,-1.04
2023-02-01T06:58:54.780Z,-0.92
2023-02-01T06:59:51.373Z,-0.89
2023-02-01T07:00:48.073Z,-0.74
2023-02-01T07:01:44.756Z,-0.69
2023-02-01T07:02:41.381Z,-0.61
2023-02-01T07:03:38.982Z,-1.00
2023-02-01T07:04:35.558Z,-1.03
2023-02-01T07:05:32.141Z,-1.24
2023-02-01T07:06:28.816Z,-0.82
2023-02-01T07:07:25.400Z,-0.67
2023-02-01T07:08:22.036Z,-0.75
2023-02-01T07:09:18.699Z,-0.51
2023-02-01T07:10:15.364Z,-0.48
2023-02-01T07:11:14.110Z,-1.10
2023-02-01T07:12:10.720Z,-0.87
2023-02-01T07:13:07.374Z,-0.68
2023-02-01T07:14:04.073Z,-0.74
2023-02-01T07:15:02.711Z,-0.54
2023-02-01T07:16:04.120Z,-0.68
2023-02-01T07:17:00.794Z,-0.74
2023-02-01T07:17:57.489Z,-0.66
2023-02-01T07:18:54.287Z,-0.79
2023-02-01T07:19:50.876Z,-0.91
2023-02-01T07:20:52.602Z,-0.64
2023-02-01T07:21:49.214Z,-1.07
2023-02-01T07:22:45.813Z,-0.74
2023-02-01T07:23:45.851Z,-0.78
2023-02-01T07:24:42.443Z,-0.58
2023-02-01T07:25:39.045Z,-0.62
2023-02-01T07:26:35.667Z,-0.66
2023-02-01T07:27:34.718Z,-0.45
2023-02-01T07:28:33.514Z,-0.65
2023-02-01T07:29:30.100Z,-0.63
2023-02-01T07:30:27.164Z,-0.56
2023-02-01T07:31:24.099Z,-0.57
2023-02-01T07:32:20.838Z,-0.61
2023-02-01T07:33:27.936Z,-0.76
2023-02-01T07:34:24.825Z,-0.68
2023-02-01T07:35:21.456Z,-0.71
2023-02-01T07:36:18.663Z,-0.66
2023-02-01T07:37:15.368Z,-0.43
2023-02-01T07:38:12.014Z,-0.25
2023-02-01T07:39:08.701Z,-0.58
2023-02-01T07:40:05.987Z,-0.18
2023-02-01T07:41:05.522Z,-0.58
2023-02-01T07:42:02.853Z,-0.22
2023-02-01T07:42:59.736Z,-0.53
2023-02-01T07:43:56.812Z,-0.74
2023-02-01T07:44:53.455Z,-0.58
2023-02-01T07:45:53.655Z,-1.12
2023-02-01T07:46:51.098Z,-0.58
2023-02-01T07:47:47.880Z,-0.40
2023-02-01T07:48:44.510Z,-0.59
2023-02-01T07:49:41.125Z,-0.47
2023-02-01T07:50:37.696Z,-0.29
2023-02-01T07:51:34.289Z,-0.29
2023-02-01T07:52:31.044Z,-0.39
2023-02-01T07:53:29.413Z,-0.59
2023-02-01T07:54:26.082Z,-0.54
2023-02-01T07:55:22.803Z,-0.27
2023-02-01T07:56:21.489Z,-0.33
2023-02-01T07:57:18.079Z,-0.48
2023-02-01T07:58:14.739Z,-0.56
2023-02-01T07:59:12.076Z,-0.66
2023-02-01T08:00:28.852Z,-0.57
2023-02-01T08:01:27.939Z,-0.30
2023-02-01T08:02:24.634Z,-0.78
2023-02-01T08:03:21.279Z,-0.58
2023-02-01T08:04:17.848Z,-0.33
2023-02-01T08:05:14.445Z,-0.74
2023-02-01T08:06:11.104Z,-0.89
2023-02-01T08:07:07.650Z,-0.49
2023-02-01T08:10:25.258Z,-0.42
2023-02-01T08:11:23.608Z,-0.38
2023-02-01T08:12:20.277Z,-0.40
2023-02-01T08:13:16.837Z,-0.49
2023-02-01T08:14:13.660Z,-0.60
2023-02-01T08:15:10.626Z,-0.49
2023-02-01T08:16:08.977Z,-0.17
2023-02-01T08:17:05.557Z,-0.50
2023-02-01T08:18:03.339Z,-0.31
2023-02-01T08:19:00.133Z,-0.25
2023-02-01T08:19:56.705Z,-0.17
2023-02-01T08:20:53.577Z,0.04
2023-02-01T08:21:50.396Z,-0.09
2023-02-01T08:22:47.074Z,-0.09
2023-02-01T08:23:44.620Z,-0.14
2023-02-01T08:24:42.161Z,-0.53
2023-02-01T08:25:39.855Z,-0.30
2023-02-01T08:26:36.604Z,-0.34
2023-02-01T08:27:36.553Z,-0.12
2023-02-01T08:28:33.162Z,-0.35
2023-02-01T08:29:29.734Z,-0.18
2023-02-01T08:30:28.602Z,-0.27
2023-02-01T08:31:28.133Z,-0.29
2023-02-01T08:32:24.856Z,-0.36
2023-02-01T08:33:21.457Z,-0.40
2023-02-01T08:34:18.044Z,-0.50
2023-02-01T08:35:15.067Z,-0.44
2023-02-01T08:36:12.173Z,-0.34
2023-02-01T08:37:08.811Z,-0.15
2023-02-01T08:38:05.600Z,-0.18
2023-02-01T08:39:03.231Z,-0.19
2023-02-01T08:39:59.816Z,-0.20
2023-02-01T08:40:56.649Z,-0.50
2023-02-01T08:42:12.380Z,-0.06
2023-02-01T08:43:09.023Z,0.14
2023-02-01T08:44:05.853Z,-0.07
2023-02-01T08:45:03.532Z,0.20
2023-02-01T08:46:00.204Z,0.57
2023-02-01T08:46:56.882Z,0.57
2023-02-01T08:47:54.544Z,0.13
2023-02-01T08:48:51.549Z,0.50
2023-02-01T08:49:48.201Z,0.06
2023-02-01T08:50:44.763Z,-0.01
2023-02-01T08:51:41.328Z,0.17
2023-02-01T08:52:38.335Z,0.21
2023-02-01T08:53:37.004Z,0.67
2023-02-01T08:54:33.745Z,0.37
2023-02-01T08:55:30.400Z,0.37
2023-02-01T08:56:27.045Z,0.54
2023-02-01T08:57:23.947Z,0.39
2023-02-01T08:58:20.906Z,0.58
2023-02-01T08:59:17.550Z,0.44
2023-02-01T09:00:17.598Z,0.24
2023-02-01T09:01:16.816Z,0.57
2023-02-01T09:02:17.613Z,0.43
2023-02-01T09:03:14.211Z,0.24
2023-02-01T09:04:10.854Z,0.10
2023-02-01T09:05:08.023Z,0.38
2023-02-01T09:06:07.271Z,0.36
2023-02-01T09:07:03.803Z,0.37
2023-02-01T09:08:00.649Z,0.72
2023-02-01T09:08:57.369Z,0.43
2023-02-01T09:09:55.579Z,0.33
2023-02-01T09:10:52.285Z,0.51
2023-02-01T09:11:49.061Z,0.56
2023-02-01T09:12:45.652Z,0.59
2023-02-01T09:13:42.822Z,0.66
2023-02-01T09:14:39.469Z,0.93
2023-02-01T09:15:36.245Z,0.79
2023-02-01T09:16:33.067Z,0.84
2023-02-01T09:17:31.160Z,0.76
2023-02-01T09:18:28.098Z,0.34
2023-02-01T09:19:26.887Z,0.40
2023-02-01T09:20:25.584Z,0.79
2023-02-01T09:21:22.448Z,0.81
2023-02-01T09:22:19.074Z,0.72
2023-02-01T09:23:15.661Z,0.84
2023-02-01T09:24:13.316Z,0.68
2023-02-01T09:25:10.156Z,0.64
2023-02-01T09:26:06.928Z,0.70
2023-02-01T09:27:03.759Z,0.41
2023-02-01T09:28:00.432Z,0.58
2023-02-01T09:28:57.041Z,0.70
2023-02-01T09:29:55.000Z,0.53
2023-02-01T09:30:56.685Z,0.87
2023-02-01T09:32:03.235Z,0.78
2023-02-01T09:33:00.422Z,1.07
2023-02-01T09:33:57.496Z,1.09
2023-02-01T09:34:54.390Z,0.89
2023-02-01T09:35:57.217Z,0.76
2023-02-01T09:36:54.028Z,0.98
2023-02-01T09:37:50.849Z,1.06
2023-02-01T09:38:52.798Z,1.00
2023-02-01T09:39:49.728Z,0.93
2023-02-01T09:40:48.319Z,1.12
2023-02-01T09:42:15.369Z,1.04
2023-02-01T09:43:22.590Z,1.40
2023-02-01T09:45:16.133Z,1.11
2023-02-01T09:46:15.217Z,1.09
2023-02-01T09:47:14.820Z,1.36
2023-02-01T09:48:18.946Z,1.53
2023-02-01T09:49:27.307Z,1.45
2023-02-01T09:50:36.934Z,1.52
2023-02-01T09:51:39.587Z,2.20
2023-02-01T09:52:44.123Z,2.21
2023-02-01T09:53:44.714Z,1.95
2023-02-01T09:55:06.592Z,1.93
2023-02-01T09:56:11.732Z,2.30
2023-02-01T09:57:20.150Z,2.47
2023-02-01T09:58:28.483Z,1.82
2023-02-01T09:59:54.125Z,2.31
2023-02-01T10:00:56.547Z,1.99
2023-02-01T10:01:53.307Z,2.38
2023-02-01T10:02:51.358Z,2.31
2023-02-01T10:03:48.474Z,2.22
2023-02-01T10:04:45.936Z,2.08
2023-02-01T10:06:03.370Z,2.54
2023-02-01T10:07:05.925Z,2.44
2023-02-01T10:08:14.191Z,2.32
2023-02-01T10:09:33.590Z,2.36
2023-02-01T10:10:37.773Z,2.53
2023-02-01T10:11:49.253Z,2.38
2023-02-01T10:12:54.856Z,2.42
2023-02-01T10:14:26.744Z,2.51
2023-02-01T10:15:35.979Z,2.73
2023-02-01T10:16:45.756Z,2.77
2023-02-01T10:17:54.379Z,2.83
2023-02-01T10:19:02.905Z,2.87
2023-02-01T10:20:08.885Z,2.77
2023-02-01T10:21:28.424Z,2.56
2023-02-01T10:24:25.942Z,3.04
2023-02-01T10:25:51.140Z,3.00
2023-02-01T10:26:57.066Z,3.20
2023-02-01T10:27:54.286Z,2.90
2023-02-01T10:29:00.737Z,2.90
2023-02-01T10:30:08.330Z,3.10
2023-02-01T10:31:06.425Z,2.90
2023-02-01T10:32:09.581Z,2.85
2023-02-01T10:33:16.337Z,2.91
2023-02-01T10:34:24.866Z,3.00
2023-02-01T10:35:31.091Z,3.30
2023-02-01T10:36:37.312Z,3.06
2023-02-01T10:37:35.280Z,3.05
2023-02-01T10:38:34.648Z,2.86
2023-02-01T10:39:31.316Z,2.88
2023-02-01T10:40:28.279Z,3.26
2023-02-01T10:41:29.613Z,3.21
2023-02-01T10:42:28.916Z,3.21
2023-02-01T10:43:25.546Z,3.60
2023-02-01T10:44:29.219Z,3.51
2023-02-01T10:45:28.845Z,3.38
2023-02-01T10:46:26.593Z,3.55
2023-02-01T10:47:23.393Z,3.33
2023-02-01T10:48:20.460Z,3.42
2023-02-01T10:49:27.604Z,3.42
2023-02-01T10:50:41.525Z,3.11
2023-02-01T10:51:40.798Z,3.15
2023-02-01T10:52:46.294Z,3.16
2023-02-01T10:53:49.309Z,3.13
2023-02-01T10:54:45.986Z,2.82
2023-02-01T10:55:55.962Z,3.10
2023-02-01T10:56:54.425Z,3.16
2023-02-01T10:58:04.015Z,3.38
2023-02-01T10:59:07.029Z,3.29
2023-02-01T11:00:20.291Z,3.08
2023-02-01T11:01:20.487Z,2.35
2023-02-01T11:02:28.851Z,2.98
2023-02-01T11:03:34.807Z,3.50
2023-02-01T11:04:37.104Z,3.27
2023-02-01T11:05:45.944Z,2.99
2023-02-01T11:06:48.700Z,2.98
2023-02-01T11:07:50.555Z,3.12
2023-02-01T11:08:51.620Z,3.37
2023-02-01T11:09:55.879Z,3.33
2023-02-01T11:11:06.709Z,3.10
2023-02-01T11:12:03.434Z,2.49
2023-02-01T11:13:03.766Z,2.91
2023-02-01T11:14:11.772Z,3.30
2023-02-01T11:15:24.505Z,3.44
2023-02-01T11:16:21.717Z,3.31
2023-02-01T11:17:27.297Z,3.34
2023-02-01T11:18:29.978Z,3.67
2023-02-01T11:19:27.556Z,3.93
2023-02-01T11:20:33.441Z,4.48
2023-02-01T11:21:30.657Z,4.33
2023-02-01T11:22:29.587Z,4.47
2023-02-01T11:23:29.441Z,4.91
2023-02-01T11:24:30.714Z,5.15
2023-02-01T11:25:27.588Z,4.84
2023-02-01T11:26:28.848Z,4.87
2023-02-01T11:27:27.964Z,4.51
2023-02-01T11:28:34.598Z,4.52
2023-02-01T11:29:41.875Z,4.39
2023-02-01T11:30:42.153Z,4.74
2023-02-01T11:31:39.658Z,4.00
2023-02-01T11:32:36.387Z,4.09
2023-02-01T11:33:37.015Z,4.69
2023-02-01T11:34:45.065Z,4.98
2023-02-01T11:35:43.688Z,4.84
2023-02-01T11:36:41.332Z,4.39
2023-02-01T11:37:42.338Z,3.99
2023-02-01T11:38:39.108Z,4.08
2023-02-01T11:39:35.935Z,4.56
2023-02-01T11:40:37.389Z,4.11
2023-02-01T11:41:34.210Z,4.40
2023-02-01T11:42:31.123Z,4.63
2023-02-01T11:43:29.539Z,4.60
2023-02-01T11:44:42.321Z,4.49
2023-02-01T11:45:39.052Z,3.93
2023-02-01T11:46:36.141Z,4.67
2023-02-01T11:47:41.528Z,4.43
2023-02-01T11:48:38.153Z,4.40
2023-02-01T11:49:34.799Z,4.36
2023-02-01T11:50:37.883Z,4.67
2023-02-01T11:51:37.327Z,4.33
2023-02-01T11:52:36.835Z,4.42
2023-02-01T11:53:48.313Z,4.61
2023-02-01T11:54:51.129Z,4.73
2023-02-01T11:55:47.714Z,4.76
2023-02-01T11:56:50.134Z,5.19
2023-02-01T11:58:06.936Z,5.20
2023-02-01T11:59:48.705Z,5.30
2023-02-01T12:01:19.468Z,4.78
2023-02-01T12:02:46.433Z,5.01
2023-02-01T12:04:08.112Z,5.16
2023-02-01T12:05:28.693Z,5.18
2023-02-01T12:06:46.700Z,5.27
2023-02-01T12:07:43.211Z,5.26
2023-02-01T12:08:59.684Z,4.94
2023-02-01T12:10:31.515Z,4.96
2023-02-01T12:11:28.126Z,5.06
2023-02-01T12:12:37.462Z,5.16
2023-02-01T12:13:41.056Z,5.43
2023-02-01T12:14:51.195Z,5.23
2023-02-01T12:15:56.391Z,5.35
2023-02-01T12:17:14.960Z,4.88
2023-02-01T12:18:30.443Z,4.54
2023-02-01T12:19:39.091Z,4.63
2023-02-01T12:20:57.936Z,4.49
2023-02-01T12:21:57.675Z,4.71
2023-02-01T12:23:24.943Z,5.17
2023-02-01T12:24:24.382Z,4.83
2023-02-01T12:25:43.101Z,4.62
2023-02-01T12:26:47.955Z,5.26
2023-02-01T12:27:50.580Z,5.51
2023-02-01T12:29:09.646Z,5.45
2023-02-01T12:30:59.855Z,5.06
2023-02-01T12:32:15.115Z,5.56
2023-02-01T12:33:14.553Z,5.33
2023-02-01T12:34:38.347Z,5.33
2023-02-01T12:35:52.444Z,4.89
2023-02-01T12:37:22.403Z,4.97
2023-02-01T12:38:24.678Z,5.51
2023-02-01T12:39:53.696Z,5.59
2023-02-01T12:41:06.995Z,5.00
2023-02-01T12:42:22.050Z,5.41
2023-02-01T12:43:26.217Z,5.04
2023-02-01T12:44:43.908Z,5.17
2023-02-01T12:45:50.753Z,5.32
2023-02-01T12:46:55.312Z,5.56
2023-02-01T12:48:31.071Z,5.47
2023-02-01T12:49:46.520Z,5.17
2023-02-01T12:50:48.547Z,4.92
2023-02-01T12:51:49.027Z,5.10
2023-02-01T12:52:53.877Z,5.29
2023-02-01T12:54:03.292Z,5.11
2023-02-01T12:55:10.969Z,5.11
2023-02-01T12:56:12.454Z,4.91
2023-02-01T12:57:17.208Z,4.68
2023-02-01T12:58:23.721Z,4.22
2023-02-01T12:59:28.031Z,4.34
2023-02-01T13:00:33.792Z,4.58
2023-02-01T13:01:51.877Z,4.61
2023-02-01T13:03:01.433Z,4.48
2023-02-01T13:04:20.554Z,4.55
2023-02-01T13:05:30.985Z,4.65
2023-02-01T13:06:34.809Z,5.03
2023-02-01T13:07:44.637Z,5.30
2023-02-01T13:09:20.164Z,5.05
2023-02-01T13:10:20.040Z,4.90
2023-02-01T13:11:41.680Z,4.70
2023-02-01T13:13:06.433Z,4.85
2023-02-01T13:14:41.059Z,4.93
2023-02-01T13:15:43.842Z,4.74
2023-02-01T13:16:45.884Z,4.73
2023-02-01T13:17:46.347Z,4.90
2023-02-01T13:18:48.895Z,5.08
2023-02-01T13:19:53.135Z,5.29
2023-02-01T13:21:04.828Z,4.86
2023-02-01T13:22:13.064Z,5.14
2023-02-01T13:23:26.039Z,4.95
2023-02-01T13:24:31.415Z,5.04
2023-02-01T13:25:48.101Z,5.10
2023-02-01T13:26:46.731Z,5.06
2023-02-01T13:27:43.407Z,5.24